Valdosta, GA

5:48 AM EST on February 11, 2016 (GMT -0500)
Valdosta Regional | | Change Station
CLOSE
Current Station
Airport
Location: Valdosta Regional,
Elevation: 203 ft
Nearby Weather Stations
Active Advisory: Freeze Warning, Flood Warning

Elev 203 ft 30.78 °N, 83.27 °W | Updated 55 minutes ago

Clear
Clear
30 °F
Feels Like 30 °F
N
0
Wind Variable Wind from North

Today
High -- | Low -- °F
--% Chance of Precip.
Yesterday
High -- | Low -- °F
Precip. -- in
Pressure 30.29 in
Visibility 10.0 miles
Clouds Clear
Dew Point 26 °F
Humidity 85%
Rainfall 0.00 in
Snow Depth Not available.
7:17 AM 6:17 PM
Waxing Crescent, 11% visible
METAR KVLD 110953Z AUTO 00000KT 10SM CLR M01/M03 A3026 RMK AO2 SLP256 T10111033
Pressure 30.29 in
Visibility 10.0 miles
Clouds Clear
Dew Point 26 °F
Humidity 85%
Rainfall 0.00 in
Snow Depth Not available.
7:17 AM 6:17 PM
Waxing Crescent, 11% visible
METAR KVLD 110953Z AUTO 00000KT 10SM CLR M01/M03 A3026 RMK AO2 SLP256 T10111033

10-Day Weather Forecast

Almanac

Astronomy

Feb. 11, 2016 Rise Set
Actual Time
Civil Twilight
Nautical Twilight
Astronomical Twilight
Moon
Length of Visible Light
Length of Day
Tomorrow will be .
, % of the Moon is Illuminated

Today's Extremes

State Highs State Lows

Community

WunderPhotos

Upload Photos

1,892,030 photos uploaded!

WunderBlog® & News

Nearby

Air Quality

  Air Quality AQ Index Pollutant
Not available.

Snow Depth

Station Depth Elevation

Earthquake Activity

City Distance Mag. Time & Date
Minimum magnitude displayed is 2.5.

Coastal Water Temperatures

Place Temperature

Stations

Nearby Weather Stations

Station Location Temp. Windchill Dew Point Humidity Wind Precip. Elev Updated Type
                   

Watches & Warnings

Freeze Warning
Issued: 2:47 AM CST Feb. 11, 2016 – National Weather Service

... Freeze warning remains in effect until 9 am EST /8 am CST/
this morning...

* min temperatures... 26 to 32 degrees.

Precautionary/preparedness actions...

A freeze warning means sub-freezing temperatures are imminent or
highly likely. These conditions will kill crops and other
sensitive vegetation.





Flood Warning
Issued: 7:28 PM EST Feb. 10, 2016 – National Weather Service

The Flood Warning continues for
the Withlacoochee River near Quitman (us 84).
* Until further notice.
* At 7:00 PM Wednesday the stage was 105.3 feet.
* Minor flooding is occurring.
* Flood stage is 102.0 feet.
* Impact: at 104.0 feet: spook bridge Lane begins to flood.


Lat... Lon 3084 8346 3074 8355 3064 8342 3063 8322 3073 8341 3079 8335